RAA44 URSS-URMM
Flight info
| Callsign | RAA44 |
|---|---|
| Flight time | 0h 41m |
| Altitude | 25000 |
| Route | IRGID1D IRGID A944 GUBOR G487 ERSAR B967 ABELA ABELA5B |
| Aircraft | A318/L-SDE2E3FGHIRWXY/A |
Departure
| Time | 2026-05-05 21:34 |
|---|---|
| Airport | Sochi International Airport (URSS) |
Arrival
| Time | 2026-05-05 22:15 |
|---|---|
| Airport | Mineralnye Vody Airport (URMM) |
| Time | Latitude | Longitude | Altitude | Speed | Heading |
|---|---|---|---|---|---|
| 2026-05-05 21:19 | 43.44811 | 39.94363 | 104 ft | 0 kts | 335° |
| 2026-05-05 21:26 | 43.44805 | 39.94368 | 104 ft | 2 kts | 335° |
| 2026-05-05 21:27 | 43.44790 | 39.94377 | 104 ft | 2 kts | 335° |
| 2026-05-05 21:27 | 43.44776 | 39.94386 | 104 ft | 2 kts | 336° |
| 2026-05-05 21:27 | 43.44761 | 39.94395 | 104 ft | 2 kts | 338° |
| 2026-05-05 21:27 | 43.44746 | 39.94403 | 104 ft | 2 kts | 342° |
| 2026-05-05 21:28 | 43.44730 | 39.94409 | 104 ft | 2 kts | 348° |
| 2026-05-05 21:28 | 43.44714 | 39.94413 | 104 ft | 2 kts | 2° |
| 2026-05-05 21:28 | 43.44700 | 39.94410 | 104 ft | 2 kts | 38° |
| 2026-05-05 21:28 | 43.44691 | 39.94396 | 104 ft | 2 kts | 65° |
| 2026-05-05 21:29 | 43.44688 | 39.94386 | 104 ft | 0 kts | 65° |
| 2026-05-05 21:30 | 43.44695 | 39.94407 | 104 ft | 4 kts | 65° |
| 2026-05-05 21:31 | 43.44709 | 39.94448 | 104 ft | 10 kts | 65° |
| 2026-05-05 21:31 | 43.44741 | 39.94541 | 104 ft | 9 kts | 65° |
| 2026-05-05 21:31 | 43.44773 | 39.94634 | 104 ft | 13 kts | 65° |
| 2026-05-05 21:31 | 43.44815 | 39.94757 | 104 ft | 15 kts | 65° |
| 2026-05-05 21:32 | 43.44858 | 39.94881 | 104 ft | 14 kts | 64° |
| 2026-05-05 21:32 | 43.44899 | 39.95002 | 104 ft | 14 kts | 64° |
| 2026-05-05 21:32 | 43.44940 | 39.95119 | 104 ft | 10 kts | 64° |
| 2026-05-05 21:32 | 43.44912 | 39.95171 | 104 ft | 8 kts | 155° |
| 2026-05-05 21:33 | 43.44867 | 39.95207 | 104 ft | 8 kts | 161° |
| 2026-05-05 21:33 | 43.44832 | 39.95167 | 104 ft | 7 kts | 245° |
| 2026-05-05 21:33 | 43.44830 | 39.95164 | 104 ft | 0 kts | 245° |
| 2026-05-05 21:33 | 43.44825 | 39.95147 | 104 ft | 14 kts | 245° |
| 2026-05-05 21:34 | 43.44657 | 39.94659 | 104 ft | 101 kts | 245° |
| 2026-05-05 21:34 | 43.44273 | 39.93520 | 305 ft | 145 kts | 246° |
| 2026-05-05 21:34 | 43.43816 | 39.92163 | 875 ft | 163 kts | 246° |
| 2026-05-05 21:34 | 43.43343 | 39.90722 | 1748 ft | 168 kts | 249° |
| 2026-05-05 21:35 | 43.43131 | 39.89144 | 2568 ft | 169 kts | 273° |
| 2026-05-05 21:35 | 43.43416 | 39.87607 | 3383 ft | 165 kts | 293° |
| 2026-05-05 21:35 | 43.44043 | 39.86290 | 3934 ft | 179 kts | 313° |
| 2026-05-05 21:35 | 43.45152 | 39.85236 | 4171 ft | 211 kts | 338° |
| 2026-05-05 21:36 | 43.46694 | 39.84966 | 4509 ft | 238 kts | 8° |
| 2026-05-05 21:36 | 43.48238 | 39.85907 | 5122 ft | 253 kts | 38° |
| 2026-05-05 21:36 | 43.49547 | 39.87587 | 5949 ft | 262 kts | 45° |
| 2026-05-05 21:36 | 43.50845 | 39.89406 | 6736 ft | 270 kts | 46° |
| 2026-05-05 21:37 | 43.52159 | 39.91284 | 7623 ft | 274 kts | 46° |
| 2026-05-05 21:37 | 43.53484 | 39.93196 | 8607 ft | 278 kts | 46° |
| 2026-05-05 21:37 | 43.54808 | 39.95116 | 9542 ft | 282 kts | 46° |
| 2026-05-05 21:37 | 43.56170 | 39.97095 | 10408 ft | 290 kts | 47° |
| 2026-05-05 21:38 | 43.57602 | 39.99159 | 11015 ft | 304 kts | 45° |
| 2026-05-05 21:38 | 43.59176 | 40.01176 | 11757 ft | 313 kts | 41° |
| 2026-05-05 21:38 | 43.60911 | 40.03047 | 12553 ft | 320 kts | 37° |
| 2026-05-05 21:38 | 43.62733 | 40.04857 | 13349 ft | 325 kts | 36° |
| 2026-05-05 21:39 | 43.64594 | 40.06684 | 14132 ft | 330 kts | 36° |
| 2026-05-05 21:39 | 43.66477 | 40.08546 | 14892 ft | 335 kts | 38° |
| 2026-05-05 21:39 | 43.68210 | 40.10714 | 15599 ft | 339 kts | 50° |
| 2026-05-05 21:39 | 43.69557 | 40.13338 | 16277 ft | 342 kts | 63° |
| 2026-05-05 21:40 | 43.70593 | 40.16302 | 16981 ft | 344 kts | 66° |
| 2026-05-05 21:40 | 43.71581 | 40.19328 | 17679 ft | 347 kts | 67° |
| 2026-05-05 21:40 | 43.72571 | 40.22385 | 18342 ft | 350 kts | 67° |
| 2026-05-05 21:40 | 43.73568 | 40.25465 | 18976 ft | 353 kts | 67° |
| 2026-05-05 21:41 | 43.74577 | 40.28583 | 19585 ft | 356 kts | 67° |
| 2026-05-05 21:41 | 43.75594 | 40.31728 | 20176 ft | 360 kts | 67° |
| 2026-05-05 21:41 | 43.76619 | 40.34903 | 20749 ft | 363 kts | 68° |
| 2026-05-05 21:41 | 43.77652 | 40.38104 | 21307 ft | 366 kts | 68° |
| 2026-05-05 21:42 | 43.78692 | 40.41334 | 21849 ft | 369 kts | 68° |
| 2026-05-05 21:42 | 43.79727 | 40.44548 | 22371 ft | 372 kts | 68° |
| 2026-05-05 21:42 | 43.80782 | 40.47831 | 22886 ft | 375 kts | 68° |
| 2026-05-05 21:42 | 43.81848 | 40.51151 | 23387 ft | 378 kts | 68° |
| 2026-05-05 21:43 | 43.82919 | 40.54493 | 23873 ft | 381 kts | 68° |
| 2026-05-05 21:43 | 43.83997 | 40.57859 | 24344 ft | 384 kts | 68° |
| 2026-05-05 21:43 | 43.85083 | 40.61253 | 24777 ft | 388 kts | 68° |
| 2026-05-05 21:43 | 43.86180 | 40.64686 | 24958 ft | 391 kts | 68° |
| 2026-05-05 21:44 | 43.87206 | 40.68165 | 25005 ft | 389 kts | 73° |
| 2026-05-05 21:44 | 43.87931 | 40.71716 | 25016 ft | 387 kts | 80° |
| 2026-05-05 21:44 | 43.88331 | 40.75390 | 25019 ft | 385 kts | 87° |
| 2026-05-05 21:44 | 43.88516 | 40.79088 | 25019 ft | 385 kts | 89° |
| 2026-05-05 21:45 | 43.88678 | 40.82792 | 25016 ft | 385 kts | 89° |
| 2026-05-05 21:45 | 43.88838 | 40.86495 | 25015 ft | 385 kts | 89° |
| 2026-05-05 21:45 | 43.89001 | 40.90201 | 25015 ft | 385 kts | 89° |
| 2026-05-05 21:45 | 43.89162 | 40.93904 | 25015 ft | 385 kts | 89° |
| 2026-05-05 21:46 | 43.89323 | 40.97614 | 25015 ft | 386 kts | 89° |
| 2026-05-05 21:46 | 43.89483 | 41.01324 | 25015 ft | 386 kts | 89° |
| 2026-05-05 21:46 | 43.89641 | 41.04989 | 25014 ft | 386 kts | 89° |
| 2026-05-05 21:46 | 43.89799 | 41.08704 | 25014 ft | 386 kts | 89° |
| 2026-05-05 21:47 | 43.89958 | 41.12425 | 25014 ft | 387 kts | 89° |
| 2026-05-05 21:47 | 43.90116 | 41.16142 | 25014 ft | 386 kts | 89° |
| 2026-05-05 21:47 | 43.90272 | 41.19861 | 25014 ft | 387 kts | 89° |
| 2026-05-05 21:47 | 43.90427 | 41.23584 | 25014 ft | 387 kts | 89° |
| 2026-05-05 21:48 | 43.90580 | 41.27309 | 25014 ft | 387 kts | 89° |
| 2026-05-05 21:48 | 43.90733 | 41.31033 | 25014 ft | 387 kts | 89° |
| 2026-05-05 21:48 | 43.90882 | 41.34715 | 25014 ft | 387 kts | 89° |
| 2026-05-05 21:48 | 43.91032 | 41.38434 | 25013 ft | 386 kts | 89° |
| 2026-05-05 21:49 | 43.91180 | 41.42151 | 25014 ft | 387 kts | 89° |
| 2026-05-05 21:49 | 43.91328 | 41.45876 | 25013 ft | 387 kts | 89° |
| 2026-05-05 21:49 | 43.91474 | 41.49599 | 25013 ft | 387 kts | 89° |
| 2026-05-05 21:49 | 43.91673 | 41.53320 | 25013 ft | 388 kts | 86° |
| 2026-05-05 21:50 | 43.92115 | 41.57017 | 25013 ft | 390 kts | 80° |
| 2026-05-05 21:50 | 43.92860 | 41.60647 | 25011 ft | 393 kts | 73° |
| 2026-05-05 21:50 | 43.93785 | 41.64207 | 24780 ft | 388 kts | 72° |
| 2026-05-05 21:50 | 43.94709 | 41.67641 | 24533 ft | 384 kts | 72° |
| 2026-05-05 21:51 | 43.95643 | 41.71102 | 24283 ft | 383 kts | 72° |
| 2026-05-05 21:51 | 43.96575 | 41.74556 | 24032 ft | 381 kts | 72° |
| 2026-05-05 21:51 | 43.97500 | 41.77992 | 23782 ft | 380 kts | 72° |
| 2026-05-05 21:51 | 43.98423 | 41.81421 | 23531 ft | 378 kts | 72° |
| 2026-05-05 21:52 | 44.00229 | 41.88159 | 23036 ft | 376 kts | 72° |
| 2026-05-05 21:52 | 44.01159 | 41.91628 | 22780 ft | 374 kts | 72° |
| 2026-05-05 21:52 | 44.02064 | 41.95013 | 22529 ft | 373 kts | 72° |
| 2026-05-05 21:53 | 44.02953 | 41.98339 | 22282 ft | 371 kts | 72° |
| 2026-05-05 21:53 | 44.03849 | 42.01697 | 22032 ft | 370 kts | 72° |
| 2026-05-05 21:53 | 44.04741 | 42.05041 | 21781 ft | 369 kts | 72° |
| 2026-05-05 21:53 | 44.05628 | 42.08376 | 21531 ft | 367 kts | 72° |
| 2026-05-05 21:54 | 44.06509 | 42.11693 | 21280 ft | 366 kts | 72° |
| 2026-05-05 21:54 | 44.07388 | 42.15003 | 21030 ft | 364 kts | 72° |
| 2026-05-05 21:54 | 44.08264 | 42.18308 | 20779 ft | 363 kts | 72° |
| 2026-05-05 21:54 | 44.09132 | 42.21592 | 20529 ft | 361 kts | 72° |
| 2026-05-05 21:55 | 44.09985 | 42.24820 | 20282 ft | 360 kts | 72° |
| 2026-05-05 21:55 | 44.10845 | 42.28081 | 20031 ft | 358 kts | 72° |
| 2026-05-05 21:55 | 44.11700 | 42.31329 | 19781 ft | 357 kts | 72° |
| 2026-05-05 21:55 | 44.12552 | 42.34565 | 19530 ft | 356 kts | 72° |
| 2026-05-05 21:56 | 44.13401 | 42.37791 | 19280 ft | 354 kts | 72° |
| 2026-05-05 21:56 | 44.14245 | 42.41009 | 19029 ft | 353 kts | 72° |
| 2026-05-05 21:56 | 44.15084 | 42.44214 | 18779 ft | 352 kts | 72° |
| 2026-05-05 21:56 | 44.15918 | 42.47405 | 18528 ft | 350 kts | 72° |
| 2026-05-05 21:57 | 44.16739 | 42.50545 | 18281 ft | 349 kts | 71° |
| 2026-05-05 21:57 | 44.17565 | 42.53712 | 18031 ft | 348 kts | 71° |
| 2026-05-05 21:57 | 44.18388 | 42.56868 | 17780 ft | 346 kts | 71° |
| 2026-05-05 21:57 | 44.19233 | 42.60003 | 17528 ft | 345 kts | 66° |
| 2026-05-05 21:58 | 44.20436 | 42.62901 | 17279 ft | 345 kts | 58° |
| 2026-05-05 21:58 | 44.21764 | 42.65666 | 17096 ft | 343 kts | 57° |
| 2026-05-05 21:58 | 44.23105 | 42.68430 | 16936 ft | 343 kts | 57° |
| 2026-05-05 21:58 | 44.24435 | 42.71187 | 16767 ft | 342 kts | 57° |
| 2026-05-05 21:59 | 44.25755 | 42.73936 | 16599 ft | 341 kts | 57° |
| 2026-05-05 21:59 | 44.27050 | 42.76646 | 16433 ft | 340 kts | 57° |
| 2026-05-05 21:59 | 44.28360 | 42.79391 | 16266 ft | 339 kts | 57° |
| 2026-05-05 21:59 | 44.29666 | 42.82133 | 16099 ft | 338 kts | 57° |
| 2026-05-05 22:00 | 44.30963 | 42.84865 | 15931 ft | 337 kts | 57° |
| 2026-05-05 22:00 | 44.32253 | 42.87594 | 15766 ft | 337 kts | 57° |
| 2026-05-05 22:00 | 44.33540 | 42.90322 | 15601 ft | 336 kts | 57° |
| 2026-05-05 22:00 | 44.34822 | 42.93038 | 15435 ft | 334 kts | 57° |
| 2026-05-05 22:01 | 44.36100 | 42.95744 | 15271 ft | 333 kts | 57° |
| 2026-05-05 22:01 | 44.37359 | 42.98411 | 15114 ft | 333 kts | 56° |
| 2026-05-05 22:01 | 44.38634 | 43.01123 | 14660 ft | 337 kts | 57° |
| 2026-05-05 22:01 | 44.39921 | 43.03863 | 13971 ft | 337 kts | 56° |
| 2026-05-05 22:02 | 44.41208 | 43.06600 | 13341 ft | 335 kts | 56° |
| 2026-05-05 22:02 | 44.42403 | 43.09383 | 12732 ft | 333 kts | 65° |
| 2026-05-05 22:02 | 44.42978 | 43.12479 | 12130 ft | 329 kts | 86° |
| 2026-05-05 22:02 | 44.42674 | 43.15614 | 11521 ft | 325 kts | 109° |
| 2026-05-05 22:03 | 44.41656 | 43.18405 | 10960 ft | 320 kts | 120° |
| 2026-05-05 22:03 | 44.40529 | 43.21006 | 10686 ft | 304 kts | 121° |
| 2026-05-05 22:03 | 44.39456 | 43.23441 | 10600 ft | 295 kts | 121° |
| 2026-05-05 22:03 | 44.38374 | 43.25883 | 10124 ft | 295 kts | 121° |
| 2026-05-05 22:04 | 44.37306 | 43.28298 | 9641 ft | 289 kts | 121° |
| 2026-05-05 22:04 | 44.36254 | 43.30678 | 9339 ft | 286 kts | 121° |
| 2026-05-05 22:04 | 44.35209 | 43.33037 | 9038 ft | 285 kts | 122° |
| 2026-05-05 22:04 | 44.34167 | 43.35390 | 8732 ft | 284 kts | 122° |
| 2026-05-05 22:05 | 44.33128 | 43.37732 | 8429 ft | 284 kts | 122° |
| 2026-05-05 22:05 | 44.32094 | 43.40062 | 8168 ft | 277 kts | 122° |
| 2026-05-05 22:05 | 44.31135 | 43.42220 | 8089 ft | 254 kts | 122° |
| 2026-05-05 22:05 | 44.30133 | 43.44122 | 7939 ft | 235 kts | 133° |
| 2026-05-05 22:06 | 44.28851 | 43.45443 | 7531 ft | 227 kts | 158° |
| 2026-05-05 22:06 | 44.27350 | 43.45657 | 7224 ft | 213 kts | 193° |
| 2026-05-05 22:06 | 44.26037 | 43.44849 | 7014 ft | 202 kts | 208° |
| 2026-05-05 22:06 | 44.24842 | 43.43903 | 6785 ft | 194 kts | 211° |
| 2026-05-05 22:07 | 44.23687 | 43.42950 | 6569 ft | 192 kts | 211° |
| 2026-05-05 22:07 | 44.22546 | 43.41984 | 6362 ft | 191 kts | 212° |
| 2026-05-05 22:07 | 44.21414 | 43.41012 | 6156 ft | 191 kts | 212° |
| 2026-05-05 22:07 | 44.20250 | 43.40209 | 5932 ft | 191 kts | 192° |
| 2026-05-05 22:08 | 44.18937 | 43.40462 | 5406 ft | 198 kts | 152° |
| 2026-05-05 22:08 | 44.17882 | 43.41691 | 5023 ft | 195 kts | 142° |
| 2026-05-05 22:08 | 44.16727 | 43.42574 | 4955 ft | 189 kts | 161° |
| 2026-05-05 22:08 | 44.15434 | 43.42836 | 4905 ft | 188 kts | 181° |
| 2026-05-05 22:09 | 44.14152 | 43.42506 | 4857 ft | 188 kts | 199° |
| 2026-05-05 22:09 | 44.13002 | 43.41666 | 4809 ft | 187 kts | 216° |
| 2026-05-05 22:09 | 44.12066 | 43.40410 | 4761 ft | 187 kts | 231° |
| 2026-05-05 22:09 | 44.11412 | 43.38853 | 4712 ft | 187 kts | 247° |
| 2026-05-05 22:10 | 44.11082 | 43.37137 | 4665 ft | 187 kts | 262° |
| 2026-05-05 22:10 | 44.11154 | 43.35352 | 4611 ft | 187 kts | 286° |
| 2026-05-05 22:10 | 44.11623 | 43.33649 | 4483 ft | 188 kts | 293° |
| 2026-05-05 22:10 | 44.12181 | 43.32012 | 4284 ft | 186 kts | 297° |
| 2026-05-05 22:11 | 44.12795 | 43.30429 | 4089 ft | 185 kts | 299° |
| 2026-05-05 22:11 | 44.13446 | 43.28870 | 3888 ft | 186 kts | 300° |
| 2026-05-05 22:11 | 44.14112 | 43.27333 | 3692 ft | 184 kts | 301° |
| 2026-05-05 22:11 | 44.14785 | 43.25816 | 3490 ft | 184 kts | 302° |
| 2026-05-05 22:12 | 44.15464 | 43.24299 | 3289 ft | 184 kts | 302° |
| 2026-05-05 22:12 | 44.16134 | 43.22809 | 3086 ft | 184 kts | 302° |
| 2026-05-05 22:12 | 44.16807 | 43.21319 | 2873 ft | 177 kts | 302° |
| 2026-05-05 22:12 | 44.17440 | 43.19916 | 2650 ft | 164 kts | 302° |
| 2026-05-05 22:13 | 44.18014 | 43.18645 | 2443 ft | 147 kts | 302° |
| 2026-05-05 22:13 | 44.18530 | 43.17501 | 2249 ft | 135 kts | 302° |
| 2026-05-05 22:13 | 44.19023 | 43.16409 | 2077 ft | 132 kts | 302° |
| 2026-05-05 22:13 | 44.19506 | 43.15339 | 1906 ft | 130 kts | 302° |
| 2026-05-05 22:14 | 44.19987 | 43.14272 | 1739 ft | 130 kts | 302° |
| 2026-05-05 22:14 | 44.20460 | 43.13224 | 1569 ft | 128 kts | 302° |
| 2026-05-05 22:14 | 44.20930 | 43.12179 | 1401 ft | 128 kts | 302° |
| 2026-05-05 22:14 | 44.21401 | 43.11136 | 1231 ft | 127 kts | 302° |
| 2026-05-05 22:15 | 44.21865 | 43.10106 | 1080 ft | 121 kts | 302° |
| 2026-05-05 22:15 | 44.22206 | 43.09351 | 1069 ft | 56 kts | 302° |
| 2026-05-05 22:15 | 44.22396 | 43.08936 | 1069 ft | 43 kts | 303° |
| 2026-05-05 22:15 | 44.22532 | 43.08633 | 1069 ft | 33 kts | 303° |
| 2026-05-05 22:16 | 44.22653 | 43.08365 | 1069 ft | 33 kts | 302° |
| 2026-05-05 22:16 | 44.22781 | 43.08081 | 1069 ft | 36 kts | 301° |
| 2026-05-05 22:16 | 44.22912 | 43.07789 | 1069 ft | 34 kts | 303° |
| 2026-05-05 22:16 | 44.23012 | 43.07548 | 1069 ft | 16 kts | 271° |
| 2026-05-05 22:17 | 44.23014 | 43.07367 | 1069 ft | 15 kts | 272° |
| 2026-05-05 22:17 | 44.23017 | 43.07266 | 1069 ft | 0 kts | 272° |